Time;durP1;ratioP1;P1;durP2;ratioP2;P2;SDS_P1;SDS_P2;PMS_P1;PMS_P2;Temp;Humidity;BMP_temperature;BMP_pressure;BME280_temperature;BME280_humidity;BME280_pressure;Samples;Min_cycle;Max_cycle;Signal;HPM_P1;HPM_P2
2021/03/17 00:02:25;;;;;;;;;;;;;;;2.97;72.05;95704.66;1751024;80;20226;-50
2021/03/17 00:05:12;;;;;;;;;;;;;;;2.98;72.08;95705.03;1744836;82;20230;-49
2021/03/17 00:07:58;;;;;;;;;;;;;;;2.97;71.82;95706.40;1775413;81;20224;-49
2021/03/17 00:10:49;;;;;;;;;;;;;;;2.92;71.92;95703.62;1771032;81;22158;-50
2021/03/17 00:13:36;;;;;;;;;;;;;;;2.89;72.06;95701.22;1768494;81;20220;-51
2021/03/17 00:16:22;;;;;;;;;;;;;;;2.88;72.25;95707.73;1747951;80;20486;-49
2021/03/17 00:19:08;;;;;;;;;;;;;;;2.91;72.13;95711.39;1780682;80;20245;-50
2021/03/17 00:21:54;;;;;;;;;;;;;;;2.91;72.08;95708.39;1796678;80;20237;-48
2021/03/17 00:24:39;;;;;;;;;;;;;;;2.92;71.96;95705.36;1792231;79;21380;-49
2021/03/17 00:27:26;;;;;;;;;;;;;;;2.91;71.91;95710.11;1779907;79;20235;-49
2021/03/17 00:30:13;;;;;;;;;;;;;;;2.89;71.97;95705.52;1781793;79;20514;-50
2021/03/17 00:33:00;;;;;;;;;;;;;;;2.87;71.88;95699.66;1793822;79;20239;-50
2021/03/17 00:35:47;;;;;;;;;;;;;;;2.87;72.23;95698.38;1782545;79;20499;-49
2021/03/17 00:38:33;;;;;;;;;;;;;;;2.92;72.23;95692.09;1775089;81;21133;-51
2021/03/17 00:41:18;;;;;;;;;;;;;;;2.86;72.29;95696.72;1774847;79;20648;-50
2021/03/17 00:44:05;;;;;;;;;;;;;;;2.81;72.33;95694.86;1774293;79;20212;-49
2021/03/17 00:46:50;;;;;;;;;;;;;;;2.77;72.37;95695.48;1775560;79;20219;-49
2021/03/17 00:49:21;;;;;;;;;;;;;;;2.73;72.31;95692.70;1781420;79;20225;-50
2021/03/17 00:51:50;;;;;;;;;;;;;;;2.73;72.13;95689.71;1777002;80;22079;-50
2021/03/17 00:54:36;;;;;;;;;;;;;;;2.73;72.23;95696.11;1722188;82;20512;-50
2021/03/17 00:57:17;;;;;;;;;;;;;;;2.74;72.25;95689.25;1755057;80;20217;-49
2021/03/17 00:59:44;;;;;;;;;;;;;;;2.75;72.19;95686.60;1764867;81;20254;-49
2021/03/17 01:02:12;;;;;;;;;;;;;;;2.78;72.08;95685.63;1775595;79;20215;-50
2021/03/17 01:04:39;;;;;;;;;;;;;;;2.80;72.08;95682.52;1775774;79;22041;-49
2021/03/17 01:07:08;;;;;;;;;;;;;;;2.81;72.06;95681.59;1776428;79;20219;-49
2021/03/17 01:09:35;;;;;;;;;;;;;;;2.82;72.07;95674.28;1800308;79;20262;-49
2021/03/17 01:12:06;;;;;;;;;;;;;;;2.84;72.16;95671.64;1806561;79;20241;-49
2021/03/17 01:14:35;;;;;;;;;;;;;;;2.87;72.22;95668.92;1793760;79;20511;-49
2021/03/17 01:17:04;;;;;;;;;;;;;;;2.87;72.09;95654.36;1774215;79;22187;-49
2021/03/17 01:19:32;;;;;;;;;;;;;;;2.88;72.26;95659.05;1751323;81;20484;-49
2021/03/17 01:21:59;;;;;;;;;;;;;;;2.89;72.15;95651.25;1743889;81;20262;-49
2021/03/17 01:24:27;;;;;;;;;;;;;;;2.89;72.19;95652.53;1763351;81;20225;-49
2021/03/17 01:26:55;;;;;;;;;;;;;;;2.93;72.06;95651.94;1758289;81;20236;-49
2021/03/17 01:29:22;;;;;;;;;;;;;;;2.95;71.85;95646.27;1760322;81;21215;-49
2021/03/17 01:31:50;;;;;;;;;;;;;;;2.90;71.79;95642.66;1762004;81;20276;-49
2021/03/17 01:34:17;;;;;;;;;;;;;;;2.85;71.85;95647.69;1765403;81;20220;-49
2021/03/17 01:36:45;;;;;;;;;;;;;;;2.82;71.91;95647.85;1767008;81;20845;-50
2021/03/17 01:39:13;;;;;;;;;;;;;;;2.81;72.18;95647.00;1755532;81;21309;-49
2021/03/17 01:41:40;;;;;;;;;;;;;;;2.82;72.36;95649.13;1748182;81;22126;-49
2021/03/17 01:44:08;;;;;;;;;;;;;;;2.80;72.30;95649.22;1750411;81;20222;-49
2021/03/17 01:46:36;;;;;;;;;;;;;;;2.75;72.44;95647.36;1736704;82;20222;-49
2021/03/17 01:49:03;;;;;;;;;;;;;;;2.72;72.40;95647.06;1741567;81;20238;-49
2021/03/17 01:51:31;;;;;;;;;;;;;;;2.69;72.48;95644.66;1745105;81;20233;-49
2021/03/17 01:53:59;;;;;;;;;;;;;;;2.66;72.53;95644.83;1740012;81;21666;-50
2021/03/17 01:56:26;;;;;;;;;;;;;;;2.62;72.56;95641.26;1742932;81;20219;-48
2021/03/17 01:58:53;;;;;;;;;;;;;;;2.62;72.78;95646.38;1747357;81;20219;-49
2021/03/17 02:01:20;;;;;;;;;;;;;;;2.63;72.89;95648.02;1727572;82;20230;-49
2021/03/17 02:03:48;;;;;;;;;;;;;;;2.64;72.84;95641.99;1746143;81;20240;-49
2021/03/17 02:06:16;;;;;;;;;;;;;;;2.63;72.73;95648.86;1766633;81;39096;-50
2021/03/17 02:08:45;;;;;;;;;;;;;;;2.61;72.71;95644.25;1767053;81;20221;-50
2021/03/17 02:11:12;;;;;;;;;;;;;;;2.60;72.61;95657.14;1759615;81;20247;-50
2021/03/17 02:14:14;;;;;;;;;;;;;;;2.58;72.67;95650.81;1737112;81;20239;-50
2021/03/17 02:16:49;;;;;;;;;;;;;;;2.60;72.78;95659.27;1751120;81;20223;-49
2021/03/17 02:19:38;;;;;;;;;;;;;;;2.65;72.74;95656.00;1754914;80;21210;-49
2021/03/17 02:22:33;;;;;;;;;;;;;;;2.71;72.58;95660.80;1768652;80;20312;-49
2021/03/17 02:25:19;;;;;;;;;;;;;;;2.74;72.59;95658.51;1763061;81;20256;-50
2021/03/17 02:28:08;;;;;;;;;;;;;;;2.78;72.42;95656.59;1794371;80;20214;-50
2021/03/17 02:31:09;;;;;;;;;;;;;;;2.78;72.15;95657.45;1784661;79;20240;-50
2021/03/17 02:33:49;;;;;;;;;;;;;;;2.78;72.01;95656.59;1767811;80;22121;-49
2021/03/17 02:36:31;;;;;;;;;;;;;;;2.69;72.16;95656.19;1786995;80;20224;-49
2021/03/17 02:39:07;;;;;;;;;;;;;;;2.64;72.51;95649.67;1782777;80;20227;-50
2021/03/17 02:41:38;;;;;;;;;;;;;;;2.56;72.83;95657.77;1792816;80;20222;-51
2021/03/17 02:44:06;;;;;;;;;;;;;;;2.52;73.02;95655.83;1785347;79;20232;-51
2021/03/17 02:46:33;;;;;;;;;;;;;;;2.51;73.11;95664.41;1763019;81;21254;-50
2021/03/17 02:49:02;;;;;;;;;;;;;;;2.50;73.06;95664.05;1764418;80;20508;-49
2021/03/17 02:51:35;;;;;;;;;;;;;;;2.49;73.11;95658.55;1794029;80;20285;-49
2021/03/17 02:54:03;;;;;;;;;;;;;;;2.50;73.06;95655.09;1776948;80;20252;-49
2021/03/17 02:56:34;;;;;;;;;;;;;;;2.51;73.05;95653.34;1763375;80;20244;-49
2021/03/17 02:59:01;;;;;;;;;;;;;;;2.53;73.00;95652.37;1772704;80;22325;-50
2021/03/17 03:01:28;;;;;;;;;;;;;;;2.52;72.89;95654.55;1782732;80;20210;-50
2021/03/17 03:03:56;;;;;;;;;;;;;;;2.49;73.04;95649.59;1792856;80;20214;-50
2021/03/17 03:06:25;;;;;;;;;;;;;;;2.46;73.07;95653.58;1782802;80;20223;-51
2021/03/17 03:08:52;;;;;;;;;;;;;;;2.44;73.01;95653.31;1789912;80;20246;-50
2021/03/17 03:11:19;;;;;;;;;;;;;;;2.42;73.06;95657.23;1764254;80;21225;-50
2021/03/17 03:13:48;;;;;;;;;;;;;;;2.45;72.86;95653.66;1790341;80;20218;-50
2021/03/17 03:16:15;;;;;;;;;;;;;;;2.44;72.73;95646.45;1780055;80;20275;-50
2021/03/17 03:18:47;;;;;;;;;;;;;;;2.43;72.69;95658.05;1755649;81;21018;-50
2021/03/17 03:21:17;;;;;;;;;;;;;;;2.42;72.82;95655.11;1736774;81;20218;-50
2021/03/17 03:23:47;;;;;;;;;;;;;;;2.42;72.90;95662.78;1746680;81;21472;-50
2021/03/17 03:26:16;;;;;;;;;;;;;;;2.42;72.89;95658.95;1728193;82;20569;-50
2021/03/17 03:28:45;;;;;;;;;;;;;;;2.40;72.58;95655.19;1755362;81;20497;-50
2021/03/17 03:31:12;;;;;;;;;;;;;;;2.36;72.35;95653.25;1760529;81;20936;-50
2021/03/17 03:33:41;;;;;;;;;;;;;;;2.36;72.61;95651.15;1758824;81;20276;-52
2021/03/17 03:36:12;;;;;;;;;;;;;;;2.44;72.51;95655.41;1753292;81;20222;-50
2021/03/17 03:38:39;;;;;;;;;;;;;;;2.52;72.56;95646.05;1765672;81;20216;-50
2021/03/17 03:41:06;;;;;;;;;;;;;;;2.62;72.43;95654.06;1746377;81;20323;-50
2021/03/17 03:43:34;;;;;;;;;;;;;;;2.64;72.17;95652.23;1745723;81;20216;-50
2021/03/17 03:46:02;;;;;;;;;;;;;;;2.64;71.97;95648.39;1742302;81;20516;-50
2021/03/17 03:48:31;;;;;;;;;;;;;;;2.62;71.70;95650.22;1747530;81;21253;-50
2021/03/17 03:50:59;;;;;;;;;;;;;;;2.55;71.85;95656.95;1742570;81;20286;-50
2021/03/17 03:53:46;;;;;;;;;;;;;;;2.53;71.94;95657.49;1749494;81;20303;-50
2021/03/17 03:56:23;;;;;;;;;;;;;;;2.56;72.01;95653.92;1748930;81;20237;-49
2021/03/17 03:58:57;;;;;;;;;;;;;;;2.57;72.01;95655.59;1754706;81;20263;-50
2021/03/17 04:01:30;;;;;;;;;;;;;;;2.54;72.07;95642.48;1732103;82;22138;-49
2021/03/17 04:04:01;;;;;;;;;;;;;;;2.53;72.05;95645.97;1726841;82;20243;-50
2021/03/17 04:06:29;;;;;;;;;;;;;;;2.50;71.99;95642.72;1725615;81;20218;-50
2021/03/17 04:08:57;;;;;;;;;;;;;;;2.44;72.09;95640.05;1760143;81;21102;-50
2021/03/17 04:11:25;;;;;;;;;;;;;;;2.42;72.23;95641.87;1760616;81;20502;-50
2021/03/17 04:13:52;;;;;;;;;;;;;;;2.43;72.24;95635.00;1762826;81;21652;-50
2021/03/17 04:16:20;;;;;;;;;;;;;;;2.44;72.22;95637.95;1754808;81;21138;-49
2021/03/17 04:18:48;;;;;;;;;;;;;;;2.41;72.31;95632.53;1763026;81;20496;-50
2021/03/17 04:21:26;;;;;;;;;;;;;;;2.36;72.41;95642.19;1760996;81;20495;-50
2021/03/17 04:23:54;;;;;;;;;;;;;;;2.30;72.62;95643.78;1732764;82;20623;-50
2021/03/17 04:26:22;;;;;;;;;;;;;;;2.26;72.85;95644.87;1763258;81;21398;-50
2021/03/17 04:28:50;;;;;;;;;;;;;;;2.26;72.92;95641.84;1757059;81;20263;-50
2021/03/17 04:31:19;;;;;;;;;;;;;;;2.27;72.83;95643.95;1713106;82;20247;-50
2021/03/17 04:33:47;;;;;;;;;;;;;;;2.29;72.82;95649.37;1743475;81;20220;-50
2021/03/17 04:36:14;;;;;;;;;;;;;;;2.33;72.83;95655.96;1755607;81;20223;-50
2021/03/17 04:38:44;;;;;;;;;;;;;;;2.39;72.68;95654.83;1754814;81;21208;-50
2021/03/17 04:41:13;;;;;;;;;;;;;;;2.45;72.45;95656.22;1721057;81;20769;-50
2021/03/17 04:43:41;;;;;;;;;;;;;;;2.47;72.29;95659.55;1762363;81;20416;-50
2021/03/17 04:46:10;;;;;;;;;;;;;;;2.48;72.12;95657.34;1734700;82;20273;-50
2021/03/17 04:48:38;;;;;;;;;;;;;;;2.51;71.96;95658.00;1761364;81;20260;-49
2021/03/17 04:51:06;;;;;;;;;;;;;;;2.53;71.80;95654.08;1755446;81;21284;-49
2021/03/17 04:53:34;;;;;;;;;;;;;;;2.54;71.75;95663.43;1751696;81;20487;-50
2021/03/17 04:56:06;;;;;;;;;;;;;;;2.54;71.87;95664.24;1726566;82;20224;-50
2021/03/17 04:58:36;;;;;;;;;;;;;;;2.54;71.97;95669.37;1757459;81;20270;-50
2021/03/17 05:01:07;;;;;;;;;;;;;;;2.54;72.06;95662.15;1757592;81;20224;-50
2021/03/17 05:03:36;;;;;;;;;;;;;;;2.54;71.98;95669.37;1762746;81;21370;-50
2021/03/17 05:06:04;;;;;;;;;;;;;;;2.54;72.02;95672.39;1760580;81;20660;-52
2021/03/17 05:08:31;;;;;;;;;;;;;;;2.55;72.12;95674.88;1733125;82;20226;-51
2021/03/17 05:10:59;;;;;;;;;;;;;;;2.59;71.99;95667.84;1759137;80;20329;-50
2021/03/17 05:13:26;;;;;;;;;;;;;;;2.64;72.00;95673.55;1735397;82;20540;-50
2021/03/17 05:15:53;;;;;;;;;;;;;;;2.63;71.91;95671.91;1727221;82;23551;-50
2021/03/17 05:18:22;;;;;;;;;;;;;;;2.64;71.94;95671.45;1724709;82;20306;-50
2021/03/17 05:20:50;;;;;;;;;;;;;;;2.63;71.94;95667.22;1737444;82;20218;-50
2021/03/17 05:23:18;;;;;;;;;;;;;;;2.61;71.83;95670.33;1729510;82;20289;-50
2021/03/17 05:25:47;;;;;;;;;;;;;;;2.54;72.02;95670.64;1727727;82;20237;-50
2021/03/17 05:28:16;;;;;;;;;;;;;;;2.54;72.18;95675.77;1737200;81;22111;-49
2021/03/17 05:30:49;;;;;;;;;;;;;;;2.60;72.22;95681.03;1733345;81;20228;-49
2021/03/17 05:33:20;;;;;;;;;;;;;;;2.65;71.97;95681.61;1762711;81;20307;-49
2021/03/17 05:35:48;;;;;;;;;;;;;;;2.71;71.90;95690.69;1750719;81;20306;-49
2021/03/17 05:38:15;;;;;;;;;;;;;;;2.72;71.84;95689.80;1759553;81;20216;-50
2021/03/17 05:40:42;;;;;;;;;;;;;;;2.73;71.78;95695.27;1758378;81;22638;-49
2021/03/17 05:43:09;;;;;;;;;;;;;;;2.73;71.73;95701.67;1757009;81;20216;-49
2021/03/17 05:45:39;;;;;;;;;;;;;;;2.72;71.75;95691.89;1736039;82;20241;-50
2021/03/17 05:48:09;;;;;;;;;;;;;;;2.68;71.68;95698.10;1733900;82;20240;-49
2021/03/17 05:50:38;;;;;;;;;;;;;;;2.63;71.81;95698.80;1733052;82;20218;-50
2021/03/17 05:53:06;;;;;;;;;;;;;;;2.61;72.08;95696.75;1764282;81;21207;-49
2021/03/17 05:55:34;;;;;;;;;;;;;;;2.63;72.12;95696.24;1714387;82;20220;-49
2021/03/17 05:58:02;;;;;;;;;;;;;;;2.66;72.23;95705.48;1735080;82;20215;-50
2021/03/17 06:00:31;;;;;;;;;;;;;;;2.68;72.25;95703.22;1755226;81;20222;-50
2021/03/17 06:02:59;;;;;;;;;;;;;;;2.72;72.08;95706.44;1736413;82;20228;-50
2021/03/17 06:05:29;;;;;;;;;;;;;;;2.72;72.11;95703.88;1770831;81;21203;-50
2021/03/17 06:08:05;;;;;;;;;;;;;;;2.75;72.05;95701.98;1760146;81;20228;-50
2021/03/17 06:10:35;;;;;;;;;;;;;;;2.82;71.73;95705.50;1760432;81;20290;-50
2021/03/17 06:13:10;;;;;;;;;;;;;;;2.90;71.77;95709.75;1737051;81;20218;-49
2021/03/17 06:15:40;;;;;;;;;;;;;;;3.03;71.65;95704.80;1731941;82;20498;-49
2021/03/17 06:18:22;;;;;;;;;;;;;;;3.09;71.17;95710.84;1763317;81;20996;-49
2021/03/17 06:20:51;;;;;;;;;;;;;;;3.09;71.22;95707.84;1768975;80;20635;-49
2021/03/17 06:23:18;;;;;;;;;;;;;;;3.12;71.02;95710.24;1773432;80;20212;-49
2021/03/17 06:25:46;;;;;;;;;;;;;;;3.14;70.81;95708.84;1768672;81;20218;-49
2021/03/17 06:28:14;;;;;;;;;;;;;;;3.11;70.79;95708.58;1768891;79;20231;-49
2021/03/17 06:30:41;;;;;;;;;;;;;;;3.09;70.79;95712.13;1793101;79;21378;-49
2021/03/17 06:33:10;;;;;;;;;;;;;;;3.11;70.70;95708.58;1781227;79;20266;-49
2021/03/17 06:35:38;;;;;;;;;;;;;;;3.13;70.64;95711.88;1800572;78;20210;-49
2021/03/17 06:38:05;;;;;;;;;;;;;;;3.18;70.57;95710.81;1770149;80;20334;-49
2021/03/17 06:40:37;;;;;;;;;;;;;;;3.20;70.45;95719.23;1771018;80;20240;-52
2021/03/17 06:43:07;;;;;;;;;;;;;;;3.21;70.38;95714.49;1770824;81;21326;-51
2021/03/17 06:45:49;;;;;;;;;;;;;;;3.21;70.49;95726.03;1733088;82;20214;-50
2021/03/17 06:48:28;;;;;;;;;;;;;;;3.21;70.40;95722.19;1736314;81;20226;-50
2021/03/17 06:51:11;;;;;;;;;;;;;;;3.24;70.26;95724.11;1780326;79;20312;-50
2021/03/17 06:53:53;;;;;;;;;;;;;;;3.25;70.01;95728.78;1792860;79;20209;-50
2021/03/17 06:56:27;;;;;;;;;;;;;;;3.23;70.14;95727.58;1757695;80;20594;-50
2021/03/17 06:59:01;;;;;;;;;;;;;;;3.25;70.32;95732.63;1766158;80;20300;-49
2021/03/17 07:01:40;;;;;;;;;;;;;;;3.33;70.20;95735.59;1758240;79;20491;-49
2021/03/17 07:04:11;;;;;;;;;;;;;;;3.39;69.84;95728.00;1765629;81;20219;-49
2021/03/17 07:06:41;;;;;;;;;;;;;;;3.47;69.79;95730.96;1799328;79;20750;-50
2021/03/17 07:09:27;;;;;;;;;;;;;;;3.52;69.68;95733.27;1777210;79;21367;-50
2021/03/17 07:12:13;;;;;;;;;;;;;;;3.63;69.45;95730.94;1778575;79;20231;-50
2021/03/17 07:14:43;;;;;;;;;;;;;;;3.71;68.97;95729.23;1775109;79;20268;-49
2021/03/17 07:17:24;;;;;;;;;;;;;;;3.74;68.74;95729.05;1798228;79;20217;-49
2021/03/17 07:19:51;;;;;;;;;;;;;;;3.76;68.57;95733.17;1774747;80;20227;-69
2021/03/17 07:22:20;;;;;;;;;;;;;;;3.85;68.34;95737.78;1777010;80;21204;-69
2021/03/17 07:24:53;;;;;;;;;;;;;;;3.93;68.25;95726.23;1772835;81;20211;-69
2021/03/17 07:27:22;;;;;;;;;;;;;;;3.96;68.16;95725.59;1806986;79;20261;-69
2021/03/17 07:30:01;;;;;;;;;;;;;;;4.00;68.06;95737.36;1800151;79;20217;-68
2021/03/17 07:32:54;;;;;;;;;;;;;;;4.06;67.95;95737.44;1774033;79;20271;-67
2021/03/17 07:35:31;;;;;;;;;;;;;;;4.12;67.87;95728.11;1782588;79;21282;-69
2021/03/17 07:38:09;;;;;;;;;;;;;;;4.15;67.63;95730.50;1766521;80;20220;-67
2021/03/17 07:40:38;;;;;;;;;;;;;;;4.16;67.49;95732.16;1762062;81;20224;-68
2021/03/17 07:43:08;;;;;;;;;;;;;;;4.18;67.39;95731.61;1766402;81;20234;-68
2021/03/17 07:45:36;;;;;;;;;;;;;;;4.23;67.28;95736.48;1745732;80;20294;-67
2021/03/17 07:48:06;;;;;;;;;;;;;;;4.27;67.06;95730.23;1760781;80;21297;-67
2021/03/17 07:50:36;;;;;;;;;;;;;;;4.29;66.79;95728.39;1768539;80;20283;-68
2021/03/17 07:53:09;;;;;;;;;;;;;;;4.28;66.83;95734.46;1756755;80;20246;-69
2021/03/17 07:55:39;;;;;;;;;;;;;;;4.34;66.91;95734.54;1775851;80;20228;-69
2021/03/17 07:58:07;;;;;;;;;;;;;;;4.38;66.67;95736.84;1774258;79;20216;-68
2021/03/17 08:00:34;;;;;;;;;;;;;;;4.35;66.40;95736.20;1802316;78;22711;-68
2021/03/17 08:03:02;;;;;;;;;;;;;;;4.31;66.57;95734.72;1757080;80;20494;-68
2021/03/17 08:05:30;;;;;;;;;;;;;;;4.28;66.76;95730.61;1739061;81;20313;-65
2021/03/17 08:08:00;;;;;;;;;;;;;;;4.32;66.69;95729.96;1716175;82;20215;-68
2021/03/17 08:10:27;;;;;;;;;;;;;;;4.35;66.61;95737.02;1741040;80;20230;-69
2021/03/17 08:12:54;;;;;;;;;;;;;;;4.37;66.62;95735.65;1771983;81;21240;-68
2021/03/17 08:15:22;;;;;;;;;;;;;;;4.41;66.48;95730.71;1806684;79;20504;-68
2021/03/17 08:17:49;;;;;;;;;;;;;;;4.38;66.15;95734.27;1804584;79;20210;-68
2021/03/17 08:20:21;;;;;;;;;;;;;;;4.31;66.36;95737.28;1771000;79;20343;-68
2021/03/17 08:22:51;;;;;;;;;;;;;;;4.27;66.38;95731.98;1760873;81;20237;-68
2021/03/17 08:25:45;;;;;;;;;;;;;;;4.22;66.61;95733.53;1759918;81;21205;-68
2021/03/17 08:28:29;;;;;;;;;;;;;;;4.22;66.85;95734.34;1787340;80;20999;-67
2021/03/17 08:30:57;;;;;;;;;;;;;;;4.25;66.85;95734.64;1770699;80;20217;-67
2021/03/17 08:33:35;;;;;;;;;;;;;;;4.25;66.40;95739.77;1761517;81;20228;-67
2021/03/17 08:36:14;;;;;;;;;;;;;;;4.21;66.64;95742.14;1784955;80;20214;-68
2021/03/17 08:38:52;;;;;;;;;;;;;;;4.19;66.40;95742.69;1761517;80;20529;-69
2021/03/17 08:41:38;;;;;;;;;;;;;;;4.12;66.66;95738.84;1771434;80;20502;-67
2021/03/17 08:44:15;;;;;;;;;;;;;;;4.08;66.82;95743.34;1770352;80;20408;-68
2021/03/17 08:46:42;;;;;;;;;;;;;;;4.02;66.86;95738.08;1773339;80;20237;-67
2021/03/17 08:49:14;;;;;;;;;;;;;;;3.93;67.00;95735.22;1781920;80;20277;-64
2021/03/17 08:51:49;;;;;;;;;;;;;;;3.94;67.17;95734.32;1780187;80;22073;-64
2021/03/17 08:54:45;;;;;;;;;;;;;;;4.02;67.30;95730.85;1767379;80;20231;-64
2021/03/17 08:57:13;;;;;;;;;;;;;;;4.07;67.37;95733.97;1770276;80;20239;-64
2021/03/17 08:59:42;;;;;;;;;;;;;;;4.18;67.23;95739.78;1789616;79;20218;-63
2021/03/17 09:02:26;;;;;;;;;;;;;;;4.22;66.87;95737.38;1771119;80;20283;-63
2021/03/17 09:04:58;;;;;;;;;;;;;;;4.21;66.88;95743.42;1771416;80;21341;-63
2021/03/17 09:07:27;;;;;;;;;;;;;;;4.21;66.94;95744.27;1762396;80;20220;-62
2021/03/17 09:10:01;;;;;;;;;;;;;;;4.23;66.80;95742.43;1760046;80;20253;-64
2021/03/17 09:12:36;;;;;;;;;;;;;;;4.25;66.70;95743.62;1787918;80;21066;-64
2021/03/17 09:15:14;;;;;;;;;;;;;;;4.27;66.77;95752.06;1770875;80;20507;-64
2021/03/17 09:17:50;;;;;;;;;;;;;;;4.29;66.76;95748.94;1789701;80;21274;-64
2021/03/17 09:20:42;;;;;;;;;;;;;;;4.35;66.90;95752.43;1797344;79;20221;-63
2021/03/17 09:23:19;;;;;;;;;;;;;;;4.47;66.84;95751.34;1801493;79;20309;-63
2021/03/17 09:25:51;;;;;;;;;;;;;;;4.58;66.55;95752.34;1757414;80;20495;-64
2021/03/17 09:28:23;;;;;;;;;;;;;;;4.66;65.85;95746.75;1776240;80;20499;-64
2021/03/17 09:31:07;;;;;;;;;;;;;;;4.64;66.08;95750.32;1730078;82;22291;-64
2021/03/17 09:33:39;;;;;;;;;;;;;;;4.67;66.03;95745.00;1716514;83;20406;-63
2021/03/17 09:36:12;;;;;;;;;;;;;;;4.74;65.96;95748.87;1762345;81;20231;-64
2021/03/17 09:38:47;;;;;;;;;;;;;;;4.77;65.41;95749.50;1776540;79;20213;-64
2021/03/17 09:41:16;;;;;;;;;;;;;;;4.78;65.49;95752.42;1805752;79;20481;-64
2021/03/17 09:43:47;;;;;;;;;;;;;;;4.83;65.46;95757.75;1792767;79;21208;-63
2021/03/17 09:46:31;;;;;;;;;;;;;;;4.83;65.49;95757.75;1788591;79;20214;-63
2021/03/17 09:49:11;;;;;;;;;;;;;;;4.78;65.30;95758.03;1806843;79;20237;-63
2021/03/17 09:51:47;;;;;;;;;;;;;;;4.75;65.31;95759.49;1777538;79;20942;-63
2021/03/17 09:54:17;;;;;;;;;;;;;;;4.66;65.47;95757.50;1777013;79;20227;-63
2021/03/17 09:56:51;;;;;;;;;;;;;;;4.60;65.94;95767.67;1791034;78;22243;-62
2021/03/17 09:59:26;;;;;;;;;;;;;;;4.63;66.04;95758.97;1800879;78;20271;-63
2021/03/17 10:02:02;;;;;;;;;;;;;;;4.66;65.89;95761.36;1796159;79;20224;-64
2021/03/17 10:04:36;;;;;;;;;;;;;;;4.64;65.76;95767.87;1803217;79;20269;-64
2021/03/17 10:07:05;;;;;;;;;;;;;;;4.58;65.84;95765.19;1736814;82;20241;-64
2021/03/17 10:09:34;;;;;;;;;;;;;;;4.49;66.12;95759.34;1787726;79;21208;-65
2021/03/17 10:12:10;;;;;;;;;;;;;;;4.49;66.61;95765.76;1802345;79;20755;-65
2021/03/17 10:14:41;;;;;;;;;;;;;;;4.51;66.25;95770.34;1794572;79;20234;-65
2021/03/17 10:17:08;;;;;;;;;;;;;;;4.51;66.40;95771.63;1806506;79;20241;-63
2021/03/17 10:19:38;;;;;;;;;;;;;;;4.54;66.37;95765.45;1801295;79;20229;-64
2021/03/17 10:22:06;;;;;;;;;;;;;;;4.53;66.16;95768.50;1746719;81;21211;-64
2021/03/17 10:24:46;;;;;;;;;;;;;;;4.55;66.35;95767.94;1769319;79;20283;-64
2021/03/17 10:27:17;;;;;;;;;;;;;;;4.61;66.04;95774.00;1769381;80;20521;-64
2021/03/17 10:29:45;;;;;;;;;;;;;;;4.60;66.07;95770.23;1783048;78;20215;-65
2021/03/17 10:32:14;;;;;;;;;;;;;;;4.61;65.85;95769.33;1801489;79;20245;-65
2021/03/17 10:34:42;;;;;;;;;;;;;;;4.54;66.02;95775.73;1802791;79;22267;-64
2021/03/17 10:37:11;;;;;;;;;;;;;;;4.56;66.48;95773.92;1800338;79;20269;-65
2021/03/17 10:39:42;;;;;;;;;;;;;;;4.60;65.79;95768.52;1806000;79;20220;-66
2021/03/17 10:42:23;;;;;;;;;;;;;;;4.61;66.02;95779.14;1772100;80;20273;-64
2021/03/17 10:45:11;;;;;;;;;;;;;;;4.67;65.92;95783.11;1755518;79;20226;-63
2021/03/17 10:47:39;;;;;;;;;;;;;;;4.70;65.83;95782.08;1745690;82;21188;-63
2021/03/17 10:50:09;;;;;;;;;;;;;;;4.75;65.85;95773.63;1744438;82;20229;-65
2021/03/17 10:52:38;;;;;;;;;;;;;;;4.76;65.79;95771.44;1759465;80;20223;-63
2021/03/17 10:55:18;;;;;;;;;;;;;;;4.69;65.80;95771.45;1760389;80;20985;-63
2021/03/17 10:57:46;;;;;;;;;;;;;;;4.67;65.88;95784.39;1774470;79;21542;-63
2021/03/17 11:00:22;;;;;;;;;;;;;;;4.66;66.27;95785.30;1757716;81;20496;-63
2021/03/17 11:02:50;;;;;;;;;;;;;;;4.70;66.46;95773.91;1775149;81;20271;-62
2021/03/17 11:05:23;;;;;;;;;;;;;;;4.78;66.13;95776.83;1761726;81;20273;-63
2021/03/17 11:08:06;;;;;;;;;;;;;;;4.81;65.87;95776.30;1792553;79;20260;-64
2021/03/17 11:10:48;;;;;;;;;;;;;;;4.83;65.85;95777.84;1806505;79;20560;-64
2021/03/17 11:13:19;;;;;;;;;;;;;;;4.85;65.74;95777.31;1805553;79;21336;-62
2021/03/17 11:15:52;;;;;;;;;;;;;;;4.85;65.84;95777.31;1786520;79;20513;-63
2021/03/17 11:18:28;;;;;;;;;;;;;;;4.88;65.61;95776.29;1806730;79;20265;-63
2021/03/17 11:21:11;;;;;;;;;;;;;;;4.89;65.47;95777.48;1784418;79;20224;-63
2021/03/17 11:23:40;;;;;;;;;;;;;;;4.85;65.68;95777.75;1804514;79;20217;-64
2021/03/17 11:26:10;;;;;;;;;;;;;;;4.79;65.54;95782.35;1776477;80;22113;-64
2021/03/17 11:28:38;;;;;;;;;;;;;;;4.72;65.48;95781.08;1759769;81;20216;-64
2021/03/17 11:31:08;;;;;;;;;;;;;;;4.67;65.79;95788.25;1755821;81;20217;-64
2021/03/17 11:33:36;;;;;;;;;;;;;;;4.66;66.08;95781.44;1773407;81;20723;-64
2021/03/17 11:36:05;;;;;;;;;;;;;;;4.66;65.86;95780.16;1768936;81;20217;-65
2021/03/17 11:38:32;;;;;;;;;;;;;;;4.61;65.72;95784.28;1763885;81;21208;-65
2021/03/17 11:41:00;;;;;;;;;;;;;;;4.59;65.96;95782.27;1775167;81;21870;-65
2021/03/17 11:43:30;;;;;;;;;;;;;;;4.59;65.80;95784.02;1773557;81;20230;-64
2021/03/17 11:45:59;;;;;;;;;;;;;;;4.59;66.13;95782.73;1784859;79;20218;-65
2021/03/17 11:48:27;;;;;;;;;;;;;;;4.57;66.14;95783.27;1806754;79;20333;-64
2021/03/17 11:50:57;;;;;;;;;;;;;;;4.56;66.52;95790.16;1755712;80;21375;-64
2021/03/17 11:53:24;;;;;;;;;;;;;;;4.52;66.07;95784.84;1771547;81;20228;-65
2021/03/17 11:55:51;;;;;;;;;;;;;;;4.46;66.20;95786.92;1806363;79;20214;-65
2021/03/17 11:58:19;;;;;;;;;;;;;;;4.37;66.66;95787.83;1805783;78;20497;-64
2021/03/17 12:00:46;;;;;;;;;;;;;;;4.38;66.62;95790.78;1780069;79;20491;-65
2021/03/17 12:03:15;;;;;;;;;;;;;;;4.41;66.71;95797.03;1775084;81;21456;-65
2021/03/17 12:05:43;;;;;;;;;;;;;;;4.42;66.71;95793.55;1775040;81;20229;-65
2021/03/17 12:08:12;;;;;;;;;;;;;;;4.43;66.64;95793.09;1798995;79;20277;-65
2021/03/17 12:10:41;;;;;;;;;;;;;;;4.42;66.62;95791.42;1806521;78;20272;-66
2021/03/17 12:13:08;;;;;;;;;;;;;;;4.36;66.57;95788.77;1777050;80;20216;-65
2021/03/17 12:15:36;;;;;;;;;;;;;;;4.30;66.76;95794.25;1751918;81;21219;-65
2021/03/17 12:18:05;;;;;;;;;;;;;;;4.29;66.86;95796.91;1732981;82;20499;-65
2021/03/17 12:20:32;;;;;;;;;;;;;;;4.24;67.04;95801.02;1760493;81;20223;-65
2021/03/17 12:23:01;;;;;;;;;;;;;;;4.21;67.25;95799.91;1736100;82;20311;-65
2021/03/17 12:25:29;;;;;;;;;;;;;;;4.18;67.46;95800.94;1753273;81;20240;-64
2021/03/17 12:27:56;;;;;;;;;;;;;;;4.19;67.59;95799.19;1760620;80;22217;-64
2021/03/17 12:30:24;;;;;;;;;;;;;;;4.19;67.60;95802.59;1723197;81;20213;-63
2021/03/17 12:32:53;;;;;;;;;;;;;;;4.15;67.63;95797.72;1768937;81;20491;-64
2021/03/17 12:35:22;;;;;;;;;;;;;;;4.14;67.86;95803.77;1754230;81;21084;-65
2021/03/17 12:37:50;;;;;;;;;;;;;;;4.16;67.89;95805.78;1747801;81;20243;-64
2021/03/17 12:40:19;;;;;;;;;;;;;;;4.17;67.92;95806.97;1737940;82;22122;-63
2021/03/17 12:42:48;;;;;;;;;;;;;;;4.20;67.48;95809.84;1738012;81;20661;-63
2021/03/17 12:45:18;;;;;;;;;;;;;;;4.09;67.93;95815.57;1765699;80;20287;-63
2021/03/17 12:47:46;;;;;;;;;;;;;;;4.07;68.37;95807.61;1731129;83;20219;-63
2021/03/17 12:50:15;;;;;;;;;;;;;;;4.07;68.05;95812.73;1719840;82;20505;-63
2021/03/17 12:52:42;;;;;;;;;;;;;;;4.04;67.80;95817.58;1748483;81;21361;-63
2021/03/17 12:55:10;;;;;;;;;;;;;;;4.02;67.85;95821.98;1764038;81;20507;-64
2021/03/17 12:57:38;;;;;;;;;;;;;;;4.03;67.93;95809.52;1766722;81;20228;-63
2021/03/17 13:00:12;;;;;;;;;;;;;;;4.02;67.92;95811.71;1752278;80;20242;-63
2021/03/17 13:02:42;;;;;;;;;;;;;;;4.04;67.98;95820.96;1715468;82;20243;-64
2021/03/17 13:05:12;;;;;;;;;;;;;;;4.04;68.27;95823.53;1747928;81;21388;-64
2021/03/17 13:07:41;;;;;;;;;;;;;;;4.12;68.43;95828.70;1762929;81;20287;-63
2021/03/17 13:10:14;;;;;;;;;;;;;;;4.20;68.45;95831.66;1766533;81;20292;-64
2021/03/17 13:12:45;;;;;;;;;;;;;;;4.23;68.01;95838.72;1755178;81;20249;-64
2021/03/17 13:15:17;;;;;;;;;;;;;;;4.22;68.06;95837.06;1728770;81;20654;-62
2021/03/17 13:17:46;;;;;;;;;;;;;;;4.22;67.44;95843.48;1758678;81;20244;-62
2021/03/17 13:20:14;;;;;;;;;;;;;;;4.19;67.48;95836.41;1749661;81;20231;-63
2021/03/17 13:22:42;;;;;;;;;;;;;;;4.13;67.63;95836.75;1742434;81;20212;-62
2021/03/17 13:25:11;;;;;;;;;;;;;;;4.07;67.78;95831.99;1766912;81;20237;-62